Jaguaripe, Brazil
Current Conditions -  °F | °C
As of 8:00 PM on Thursday 20 Nov 2014 (Local Time) from SBIL Reporting Station
Scattered Clouds Scattered Clouds  
Wind Chill: 75°   Ceiling: Unl
Heat Index: 75°   Visibility: 6mi
Dew Point: 70°   Wind: 3mph
Humidity: 83%   Direction: 200°SSW
Pressure: 29.97"   Gusts: NA
Location:  13.11°S, 38.9°W
Report Text: SBIL 202300Z 20003KT 9999 SCT020 SCT070 24/21 Q1015
Loading
Personal Weather Stations






























Interactive Weather Map New forecast layout! Learn more

10-Day Weather Forecast

Advertisements
Track Severe Weather on mobile